sensor_id;sensor_type;location;lat;lon;timestamp;temperature;humidity
42187;DHT22;27858;51.414;0.018;2023-06-22T04:02:02;16.30;99.90
42187;DHT22;27858;51.414;0.018;2023-06-22T04:04:29;16.30;99.90
42187;DHT22;27858;51.414;0.018;2023-06-22T04:06:56;16.30;99.90
42187;DHT22;27858;51.414;0.018;2023-06-22T04:09:23;16.30;99.90
42187;DHT22;27858;51.414;0.018;2023-06-22T04:11:50;16.30;99.90
42187;DHT22;27858;51.414;0.018;2023-06-22T04:14:17;16.40;99.90
42187;DHT22;27858;51.414;0.018;2023-06-22T04:16:44;16.40;99.90
42187;DHT22;27858;51.414;0.018;2023-06-22T04:19:10;16.40;99.90
42187;DHT22;27858;51.414;0.018;2023-06-22T04:21:43;16.30;99.90
42187;DHT22;27858;51.414;0.018;2023-06-22T04:24:11;16.40;99.90
42187;DHT22;27858;51.414;0.018;2023-06-22T04:26:38;16.40;99.90
42187;DHT22;27858;51.414;0.018;2023-06-22T04:29:08;16.40;99.90
42187;DHT22;27858;51.414;0.018;2023-06-22T04:31:38;16.40;99.90
42187;DHT22;27858;51.414;0.018;2023-06-22T04:34:07;16.40;99.90
42187;DHT22;27858;51.414;0.018;2023-06-22T04:36:39;16.40;99.90
42187;DHT22;27858;51.414;0.018;2023-06-22T04:39:10;16.40;99.90
42187;DHT22;27858;51.414;0.018;2023-06-22T04:41:38;16.30;99.90
42187;DHT22;27858;51.414;0.018;2023-06-22T04:44:10;16.30;99.90
42187;DHT22;27858;51.414;0.018;2023-06-22T04:46:37;16.30;99.90
42187;DHT22;27858;51.414;0.018;2023-06-22T04:49:06;16.40;99.90
42187;DHT22;27858;51.414;0.018;2023-06-22T04:51:40;16.30;99.90
42187;DHT22;27858;51.414;0.018;2023-06-22T04:54:08;16.40;99.90
42187;DHT22;27858;51.414;0.018;2023-06-22T04:56:35;16.40;99.90
42187;DHT22;27858;51.414;0.018;2023-06-22T04:59:02;16.50;99.90
42187;DHT22;27858;51.414;0.018;2023-06-22T05:01:29;16.50;99.90
42187;DHT22;27858;51.414;0.018;2023-06-22T05:03:59;16.50;99.90
42187;DHT22;27858;51.414;0.018;2023-06-22T05:06:28;16.50;99.90
42187;DHT22;27858;51.414;0.018;2023-06-22T05:08:56;16.60;99.90
42187;DHT22;27858;51.414;0.018;2023-06-22T05:11:27;16.60;99.90
42187;DHT22;27858;51.414;0.018;2023-06-22T05:13:55;16.70;99.90
42187;DHT22;27858;51.414;0.018;2023-06-22T05:16:24;16.70;99.90
42187;DHT22;27858;51.414;0.018;2023-06-22T05:18:52;16.80;99.90
42187;DHT22;27858;51.414;0.018;2023-06-22T05:21:22;16.90;99.90
42187;DHT22;27858;51.414;0.018;2023-06-22T05:23:51;17.00;99.90
42187;DHT22;27858;51.414;0.018;2023-06-22T05:26:19;17.10;99.90
42187;DHT22;27858;51.414;0.018;2023-06-22T05:28:47;17.10;99.90
42187;DHT22;27858;51.414;0.018;2023-06-22T05:31:14;17.10;99.90
42187;DHT22;27858;51.414;0.018;2023-06-22T05:33:42;17.10;99.90
42187;DHT22;27858;51.414;0.018;2023-06-22T05:36:09;17.20;99.90
42187;DHT22;27858;51.414;0.018;2023-06-22T05:38:37;17.20;99.90
42187;DHT22;27858;51.414;0.018;2023-06-22T05:41:04;17.30;99.90
42187;DHT22;27858;51.414;0.018;2023-06-22T05:43:31;17.40;99.90
42187;DHT22;27858;51.414;0.018;2023-06-22T05:45:59;17.40;99.90
42187;DHT22;27858;51.414;0.018;2023-06-22T05:48:26;17.40;99.90
42187;DHT22;27858;51.414;0.018;2023-06-22T05:50:56;17.40;99.90
42187;DHT22;27858;51.414;0.018;2023-06-22T05:53:23;17.50;99.90
42187;DHT22;27858;51.414;0.018;2023-06-22T05:55:50;17.50;99.90
42187;DHT22;27858;51.414;0.018;2023-06-22T05:58:17;17.50;99.90
42187;DHT22;27858;51.414;0.018;2023-06-22T06:00:43;17.50;99.90
42187;DHT22;27858;51.414;0.018;2023-06-22T06:03:10;17.40;99.90
42187;DHT22;27858;51.414;0.018;2023-06-22T06:05:41;17.50;99.90
42187;DHT22;27858;51.414;0.018;2023-06-22T06:08:07;17.50;99.90
42187;DHT22;27858;51.414;0.018;2023-06-22T06:10:35;17.60;99.90
42187;DHT22;27858;51.414;0.018;2023-06-22T06:13:02;17.70;99.90
42187;DHT22;27858;51.414;0.018;2023-06-22T06:15:31;17.80;99.90
42187;DHT22;27858;51.414;0.018;2023-06-22T06:17:58;17.90;99.90
42187;DHT22;27858;51.414;0.018;2023-06-22T06:20:26;18.00;99.90
42187;DHT22;27858;51.414;0.018;2023-06-22T06:22:57;18.10;99.90
42187;DHT22;27858;51.414;0.018;2023-06-22T06:25:24;18.10;99.90
42187;DHT22;27858;51.414;0.018;2023-06-22T06:27:52;18.20;99.90
42187;DHT22;27858;51.414;0.018;2023-06-22T06:30:21;18.10;99.90
42187;DHT22;27858;51.414;0.018;2023-06-22T06:32:49;18.10;99.90
42187;DHT22;27858;51.414;0.018;2023-06-22T06:35:16;18.10;99.90
42187;DHT22;27858;51.414;0.018;2023-06-22T06:37:45;18.20;99.90
42187;DHT22;27858;51.414;0.018;2023-06-22T06:40:13;18.20;99.90
42187;DHT22;27858;51.414;0.018;2023-06-22T06:42:47;18.30;99.90
42187;DHT22;27858;51.414;0.018;2023-06-22T06:45:22;18.40;99.90
42187;DHT22;27858;51.414;0.018;2023-06-22T06:47:50;18.50;99.90
42187;DHT22;27858;51.414;0.018;2023-06-22T06:50:18;18.50;99.90
42187;DHT22;27858;51.414;0.018;2023-06-22T06:52:45;18.60;99.90
42187;DHT22;27858;51.414;0.018;2023-06-22T06:55:12;18.50;99.90
42187;DHT22;27858;51.414;0.018;2023-06-22T06:57:41;18.60;99.90
42187;DHT22;27858;51.414;0.018;2023-06-22T07:00:10;18.60;99.90
42187;DHT22;27858;51.414;0.018;2023-06-22T07:02:40;18.70;99.90
42187;DHT22;27858;51.414;0.018;2023-06-22T07:05:08;18.80;99.90
42187;DHT22;27858;51.414;0.018;2023-06-22T07:07:35;18.70;99.90
42187;DHT22;27858;51.414;0.018;2023-06-22T07:10:05;18.90;99.90
42187;DHT22;27858;51.414;0.018;2023-06-22T07:12:33;18.90;99.90
42187;DHT22;27858;51.414;0.018;2023-06-22T07:15:08;19.00;99.90
42187;DHT22;27858;51.414;0.018;2023-06-22T07:17:36;19.10;99.90
42187;DHT22;27858;51.414;0.018;2023-06-22T07:20:03;19.20;99.90
42187;DHT22;27858;51.414;0.018;2023-06-22T07:22:40;19.20;99.90
42187;DHT22;27858;51.414;0.018;2023-06-22T07:25:08;19.00;99.90
42187;DHT22;27858;51.414;0.018;2023-06-22T07:27:46;19.10;99.90
42187;DHT22;27858;51.414;0.018;2023-06-22T07:30:22;19.20;99.90
42187;DHT22;27858;51.414;0.018;2023-06-22T07:32:50;19.20;99.90
42187;DHT22;27858;51.414;0.018;2023-06-22T07:35:17;19.20;99.90
42187;DHT22;27858;51.414;0.018;2023-06-22T07:37:44;19.30;99.90
42187;DHT22;27858;51.414;0.018;2023-06-22T07:40:11;19.50;99.90
42187;DHT22;27858;51.414;0.018;2023-06-22T07:42:38;19.50;99.90
42187;DHT22;27858;51.414;0.018;2023-06-22T07:45:06;19.50;99.90
42187;DHT22;27858;51.414;0.018;2023-06-22T07:47:35;19.50;99.90
42187;DHT22;27858;51.414;0.018;2023-06-22T07:50:03;19.60;99.90
42187;DHT22;27858;51.414;0.018;2023-06-22T07:52:30;19.70;99.90
42187;DHT22;27858;51.414;0.018;2023-06-22T07:54:57;19.90;99.90
42187;DHT22;27858;51.414;0.018;2023-06-22T07:57:24;20.00;99.90
42187;DHT22;27858;51.414;0.018;2023-06-22T08:00:04;20.20;99.90
42187;DHT22;27858;51.414;0.018;2023-06-22T08:02:39;20.30;99.90
42187;DHT22;27858;51.414;0.018;2023-06-22T08:05:09;20.40;99.90
42187;DHT22;27858;51.414;0.018;2023-06-22T08:07:56;20.40;99.90
42187;DHT22;27858;51.414;0.018;2023-06-22T08:10:23;20.40;99.90
42187;DHT22;27858;51.414;0.018;2023-06-22T08:12:50;20.60;99.90
42187;DHT22;27858;51.414;0.018;2023-06-22T08:15:18;20.70;99.90
42187;DHT22;27858;51.414;0.018;2023-06-22T08:17:45;20.70;99.90
42187;DHT22;27858;51.414;0.018;2023-06-22T08:20:13;20.80;99.90
42187;DHT22;27858;51.414;0.018;2023-06-22T08:22:41;20.90;99.90
42187;DHT22;27858;51.414;0.018;2023-06-22T08:25:09;21.00;99.90
42187;DHT22;27858;51.414;0.018;2023-06-22T08:27:36;21.10;99.90
42187;DHT22;27858;51.414;0.018;2023-06-22T08:30:03;21.20;99.90
42187;DHT22;27858;51.414;0.018;2023-06-22T08:32:30;21.20;99.90
42187;DHT22;27858;51.414;0.018;2023-06-22T08:34:59;21.30;99.90
42187;DHT22;27858;51.414;0.018;2023-06-22T08:37:26;21.40;99.90
42187;DHT22;27858;51.414;0.018;2023-06-22T08:40:01;21.50;99.90
42187;DHT22;27858;51.414;0.018;2023-06-22T08:42:28;21.60;99.90
42187;DHT22;27858;51.414;0.018;2023-06-22T08:44:55;21.80;99.90
42187;DHT22;27858;51.414;0.018;2023-06-22T08:47:22;21.70;99.90
42187;DHT22;27858;51.414;0.018;2023-06-22T08:49:50;21.80;99.90
42187;DHT22;27858;51.414;0.018;2023-06-22T08:52:18;21.70;99.90
42187;DHT22;27858;51.414;0.018;2023-06-22T08:54:47;21.90;99.90
42187;DHT22;27858;51.414;0.018;2023-06-22T08:57:14;22.10;99.90
42187;DHT22;27858;51.414;0.018;2023-06-22T08:59:40;22.10;99.90
42187;DHT22;27858;51.414;0.018;2023-06-22T09:02:07;22.20;99.90
42187;DHT22;27858;51.414;0.018;2023-06-22T09:04:34;22.30;99.90
42187;DHT22;27858;51.414;0.018;2023-06-22T09:07:02;22.50;99.90
42187;DHT22;27858;51.414;0.018;2023-06-22T09:09:31;22.50;99.90
42187;DHT22;27858;51.414;0.018;2023-06-22T09:11:58;22.50;99.90
42187;DHT22;27858;51.414;0.018;2023-06-22T09:14:24;22.50;99.90
42187;DHT22;27858;51.414;0.018;2023-06-22T09:16:51;22.50;99.90
42187;DHT22;27858;51.414;0.018;2023-06-22T09:19:18;22.60;99.90
42187;DHT22;27858;51.414;0.018;2023-06-22T09:21:45;22.90;99.90
42187;DHT22;27858;51.414;0.018;2023-06-22T09:24:12;23.00;97.80
42187;DHT22;27858;51.414;0.018;2023-06-22T09:26:39;23.20;95.10
42187;DHT22;27858;51.414;0.018;2023-06-22T09:29:06;23.10;65.60
42187;DHT22;27858;51.414;0.018;2023-06-22T09:31:32;23.40;87.90
42187;DHT22;27858;51.414;0.018;2023-06-22T09:33:59;23.60;64.00
42187;DHT22;27858;51.414;0.018;2023-06-22T09:36:26;23.90;49.00
42187;DHT22;27858;51.414;0.018;2023-06-22T09:38:53;23.80;43.40
42187;DHT22;27858;51.414;0.018;2023-06-22T09:41:25;23.80;30.20
42187;DHT22;27858;51.414;0.018;2023-06-22T09:43:51;23.70;39.40
42187;DHT22;27858;51.414;0.018;2023-06-22T09:46:22;23.70;40.10
42187;DHT22;27858;51.414;0.018;2023-06-22T09:48:51;24.00;42.20
42187;DHT22;27858;51.414;0.018;2023-06-22T09:51:18;24.30;21.90
42187;DHT22;27858;51.414;0.018;2023-06-22T09:53:46;24.50;21.60
42187;DHT22;27858;51.414;0.018;2023-06-22T09:56:13;24.40;15.60
42187;DHT22;27858;51.414;0.018;2023-06-22T09:58:44;24.80;9.40
42187;DHT22;27858;51.414;0.018;2023-06-22T10:01:11;25.00;1.00
42187;DHT22;27858;51.414;0.018;2023-06-22T10:03:38;25.00;1.00
42187;DHT22;27858;51.414;0.018;2023-06-22T10:06:08;25.00;1.00
42187;DHT22;27858;51.414;0.018;2023-06-22T10:08:35;25.10;1.00
42187;DHT22;27858;51.414;0.018;2023-06-22T10:11:03;25.20;1.00
42187;DHT22;27858;51.414;0.018;2023-06-22T10:13:30;25.40;1.00
42187;DHT22;27858;51.414;0.018;2023-06-22T10:15:57;25.30;1.00
42187;DHT22;27858;51.414;0.018;2023-06-22T10:18:24;25.10;1.00
42187;DHT22;27858;51.414;0.018;2023-06-22T10:20:52;25.20;1.00
42187;DHT22;27858;51.414;0.018;2023-06-22T10:23:19;25.10;1.00
42187;DHT22;27858;51.414;0.018;2023-06-22T10:25:49;25.10;1.00
42187;DHT22;27858;51.414;0.018;2023-06-22T10:28:16;25.00;1.00
42187;DHT22;27858;51.414;0.018;2023-06-22T10:30:43;24.90;1.00
42187;DHT22;27858;51.414;0.018;2023-06-22T10:33:11;25.00;1.00
42187;DHT22;27858;51.414;0.018;2023-06-22T10:35:39;25.00;1.00
42187;DHT22;27858;51.414;0.018;2023-06-22T10:38:06;25.00;1.00
42187;DHT22;27858;51.414;0.018;2023-06-22T10:40:33;25.10;1.00
42187;DHT22;27858;51.414;0.018;2023-06-22T10:43:00;25.20;1.00
42187;DHT22;27858;51.414;0.018;2023-06-22T10:45:26;25.40;1.00
42187;DHT22;27858;51.414;0.018;2023-06-22T10:47:57;25.70;99.90
42187;DHT22;27858;51.414;0.018;2023-06-22T10:50:25;25.70;99.90
42187;DHT22;27858;51.414;0.018;2023-06-22T10:52:52;26.00;99.90
42187;DHT22;27858;51.414;0.018;2023-06-22T10:55:19;25.90;99.90
42187;DHT22;27858;51.414;0.018;2023-06-22T10:57:52;25.80;99.90
42187;DHT22;27858;51.414;0.018;2023-06-22T11:00:19;25.90;99.90
42187;DHT22;27858;51.414;0.018;2023-06-22T11:02:47;25.90;99.90
42187;DHT22;27858;51.414;0.018;2023-06-22T11:05:14;26.30;99.90
42187;DHT22;27858;51.414;0.018;2023-06-22T11:07:43;26.40;99.90
42187;DHT22;27858;51.414;0.018;2023-06-22T11:10:15;26.00;99.90
42187;DHT22;27858;51.414;0.018;2023-06-22T11:12:47;26.00;99.90
42187;DHT22;27858;51.414;0.018;2023-06-22T11:15:14;26.30;99.90
42187;DHT22;27858;51.414;0.018;2023-06-22T11:17:40;26.20;99.90
42187;DHT22;27858;51.414;0.018;2023-06-22T11:20:07;26.30;99.90
42187;DHT22;27858;51.414;0.018;2023-06-22T11:22:52;26.50;99.90
42187;DHT22;27858;51.414;0.018;2023-06-22T11:25:19;26.90;99.90
42187;DHT22;27858;51.414;0.018;2023-06-22T11:27:45;26.90;99.90
42187;DHT22;27858;51.414;0.018;2023-06-22T11:30:12;27.00;99.90
42187;DHT22;27858;51.414;0.018;2023-06-22T11:32:40;27.30;99.90
42187;DHT22;27858;51.414;0.018;2023-06-22T11:35:07;27.40;99.90
42187;DHT22;27858;51.414;0.018;2023-06-22T11:37:34;27.50;99.90
42187;DHT22;27858;51.414;0.018;2023-06-22T11:40:01;27.20;99.90
42187;DHT22;27858;51.414;0.018;2023-06-22T11:42:33;27.40;99.90
42187;DHT22;27858;51.414;0.018;2023-06-22T11:45:01;27.90;99.90
42187;DHT22;27858;51.414;0.018;2023-06-22T11:47:29;27.90;99.90
42187;DHT22;27858;51.414;0.018;2023-06-22T11:49:56;28.10;99.90
42187;DHT22;27858;51.414;0.018;2023-06-22T11:52:23;27.90;99.90
42187;DHT22;27858;51.414;0.018;2023-06-22T11:54:49;27.70;99.90
42187;DHT22;27858;51.414;0.018;2023-06-22T11:57:16;27.50;99.90
42187;DHT22;27858;51.414;0.018;2023-06-22T11:59:43;27.20;99.90
42187;DHT22;27858;51.414;0.018;2023-06-22T12:02:10;27.00;99.90
42187;DHT22;27858;51.414;0.018;2023-06-22T12:04:39;27.40;99.90
42187;DHT22;27858;51.414;0.018;2023-06-22T12:07:06;27.40;99.90
42187;DHT22;27858;51.414;0.018;2023-06-22T12:09:33;27.30;99.90
42187;DHT22;27858;51.414;0.018;2023-06-22T12:12:00;27.30;99.90
42187;DHT22;27858;51.414;0.018;2023-06-22T12:14:26;27.30;99.90
42187;DHT22;27858;51.414;0.018;2023-06-22T12:16:55;27.50;99.90
42187;DHT22;27858;51.414;0.018;2023-06-22T12:19:23;27.50;99.90
42187;DHT22;27858;51.414;0.018;2023-06-22T12:21:50;28.10;99.90
42187;DHT22;27858;51.414;0.018;2023-06-22T12:24:17;28.50;99.90
42187;DHT22;27858;51.414;0.018;2023-06-22T12:26:43;28.60;99.90
42187;DHT22;27858;51.414;0.018;2023-06-22T12:29:10;28.60;99.90
42187;DHT22;27858;51.414;0.018;2023-06-22T12:31:37;28.50;99.90
42187;DHT22;27858;51.414;0.018;2023-06-22T12:34:06;28.40;99.90
42187;DHT22;27858;51.414;0.018;2023-06-22T12:36:33;28.10;99.90
42187;DHT22;27858;51.414;0.018;2023-06-22T12:38:59;28.00;99.90
42187;DHT22;27858;51.414;0.018;2023-06-22T12:41:28;28.10;99.90
42187;DHT22;27858;51.414;0.018;2023-06-22T12:43:55;28.50;99.90
42187;DHT22;27858;51.414;0.018;2023-06-22T12:46:22;28.80;99.90
42187;DHT22;27858;51.414;0.018;2023-06-22T12:48:49;29.10;99.90
42187;DHT22;27858;51.414;0.018;2023-06-22T12:51:22;29.40;99.90
42187;DHT22;27858;51.414;0.018;2023-06-22T12:53:49;29.40;99.90
42187;DHT22;27858;51.414;0.018;2023-06-22T12:56:16;29.60;99.90
42187;DHT22;27858;51.414;0.018;2023-06-22T12:58:43;29.70;99.90
42187;DHT22;27858;51.414;0.018;2023-06-22T13:01:10;30.00;99.90
42187;DHT22;27858;51.414;0.018;2023-06-22T13:03:37;30.40;99.90
42187;DHT22;27858;51.414;0.018;2023-06-22T13:06:03;30.50;99.90
42187;DHT22;27858;51.414;0.018;2023-06-22T13:08:31;30.50;99.90
42187;DHT22;27858;51.414;0.018;2023-06-22T13:11:17;30.60;99.90
42187;DHT22;27858;51.414;0.018;2023-06-22T13:13:45;30.80;99.90
42187;DHT22;27858;51.414;0.018;2023-06-22T13:16:12;31.00;99.90
42187;DHT22;27858;51.414;0.018;2023-06-22T13:18:39;31.30;99.90
42187;DHT22;27858;51.414;0.018;2023-06-22T13:21:06;31.20;99.90
42187;DHT22;27858;51.414;0.018;2023-06-22T13:23:32;31.60;99.90
42187;DHT22;27858;51.414;0.018;2023-06-22T13:26:00;32.00;99.90
42187;DHT22;27858;51.414;0.018;2023-06-22T13:28:27;32.20;99.90
42187;DHT22;27858;51.414;0.018;2023-06-22T13:30:55;32.20;99.90
42187;DHT22;27858;51.414;0.018;2023-06-22T13:33:22;32.40;99.90
42187;DHT22;27858;51.414;0.018;2023-06-22T13:35:49;32.30;99.90
42187;DHT22;27858;51.414;0.018;2023-06-22T13:38:16;32.00;99.90
42187;DHT22;27858;51.414;0.018;2023-06-22T13:40:44;31.50;99.90
42187;DHT22;27858;51.414;0.018;2023-06-22T13:43:10;31.00;99.90
42187;DHT22;27858;51.414;0.018;2023-06-22T13:45:37;30.50;99.90
42187;DHT22;27858;51.414;0.018;2023-06-22T13:48:04;30.10;99.90
42187;DHT22;27858;51.414;0.018;2023-06-22T13:50:31;29.70;99.90
42187;DHT22;27858;51.414;0.018;2023-06-22T13:52:58;29.50;99.90
42187;DHT22;27858;51.414;0.018;2023-06-22T13:55:25;29.00;99.90
42187;DHT22;27858;51.414;0.018;2023-06-22T13:57:53;29.30;99.90
42187;DHT22;27858;51.414;0.018;2023-06-22T14:00:22;29.80;99.90
42187;DHT22;27858;51.414;0.018;2023-06-22T14:02:49;30.50;99.90
42187;DHT22;27858;51.414;0.018;2023-06-22T14:05:17;31.00;99.90
42187;DHT22;27858;51.414;0.018;2023-06-22T14:07:44;31.60;99.90
42187;DHT22;27858;51.414;0.018;2023-06-22T14:10:10;31.70;99.90
42187;DHT22;27858;51.414;0.018;2023-06-22T14:12:37;32.20;99.90
42187;DHT22;27858;51.414;0.018;2023-06-22T14:15:05;32.90;99.90
42187;DHT22;27858;51.414;0.018;2023-06-22T14:17:31;33.20;99.90
42187;DHT22;27858;51.414;0.018;2023-06-22T14:19:58;33.20;99.90
42187;DHT22;27858;51.414;0.018;2023-06-22T14:22:25;33.20;99.90
42187;DHT22;27858;51.414;0.018;2023-06-22T14:24:53;32.90;99.90
42187;DHT22;27858;51.414;0.018;2023-06-22T14:27:20;32.00;99.90
42187;DHT22;27858;51.414;0.018;2023-06-22T14:29:47;32.20;99.90
42187;DHT22;27858;51.414;0.018;2023-06-22T14:32:13;32.40;99.90
42187;DHT22;27858;51.414;0.018;2023-06-22T14:34:40;31.90;99.90
42187;DHT22;27858;51.414;0.018;2023-06-22T14:37:07;31.60;99.90
42187;DHT22;27858;51.414;0.018;2023-06-22T14:39:36;31.10;99.90
42187;DHT22;27858;51.414;0.018;2023-06-22T14:42:03;31.00;99.90
42187;DHT22;27858;51.414;0.018;2023-06-22T14:44:30;30.60;99.90
42187;DHT22;27858;51.414;0.018;2023-06-22T14:46:57;30.40;99.90
42187;DHT22;27858;51.414;0.018;2023-06-22T14:49:24;30.00;99.90
42187;DHT22;27858;51.414;0.018;2023-06-22T14:51:51;29.70;99.90
42187;DHT22;27858;51.414;0.018;2023-06-22T14:54:17;29.40;99.90
42187;DHT22;27858;51.414;0.018;2023-06-22T14:56:44;29.30;99.90
42187;DHT22;27858;51.414;0.018;2023-06-22T14:59:12;29.90;99.90
42187;DHT22;27858;51.414;0.018;2023-06-22T15:01:39;30.60;99.90
42187;DHT22;27858;51.414;0.018;2023-06-22T15:04:07;31.00;99.90
42187;DHT22;27858;51.414;0.018;2023-06-22T15:06:34;31.90;99.90
42187;DHT22;27858;51.414;0.018;2023-06-22T15:09:01;32.60;99.90
42187;DHT22;27858;51.414;0.018;2023-06-22T15:11:28;33.10;99.90
42187;DHT22;27858;51.414;0.018;2023-06-22T15:13:58;33.70;99.90
42187;DHT22;27858;51.414;0.018;2023-06-22T15:16:25;33.80;99.90
42187;DHT22;27858;51.414;0.018;2023-06-22T15:18:52;34.50;99.90
42187;DHT22;27858;51.414;0.018;2023-06-22T15:21:19;34.70;99.90
42187;DHT22;27858;51.414;0.018;2023-06-22T15:23:46;34.70;99.90
42187;DHT22;27858;51.414;0.018;2023-06-22T15:26:13;34.00;99.90
42187;DHT22;27858;51.414;0.018;2023-06-22T15:28:39;34.60;99.90
42187;DHT22;27858;51.414;0.018;2023-06-22T15:31:06;35.30;99.90
42187;DHT22;27858;51.414;0.018;2023-06-22T15:33:33;34.60;99.90
42187;DHT22;27858;51.414;0.018;2023-06-22T15:36:04;34.90;99.90
42187;DHT22;27858;51.414;0.018;2023-06-22T15:38:33;34.80;99.90
42187;DHT22;27858;51.414;0.018;2023-06-22T15:41:00;34.30;99.90
42187;DHT22;27858;51.414;0.018;2023-06-22T15:43:27;33.80;99.90
42187;DHT22;27858;51.414;0.018;2023-06-22T15:45:54;34.00;99.90
42187;DHT22;27858;51.414;0.018;2023-06-22T15:48:21;33.20;99.90
42187;DHT22;27858;51.414;0.018;2023-06-22T15:50:48;33.20;99.90
42187;DHT22;27858;51.414;0.018;2023-06-22T15:53:15;33.20;99.90
42187;DHT22;27858;51.414;0.018;2023-06-22T15:55:42;32.90;99.90
42187;DHT22;27858;51.414;0.018;2023-06-22T15:58:09;33.10;99.90
42187;DHT22;27858;51.414;0.018;2023-06-22T16:00:39;32.60;99.90
42187;DHT22;27858;51.414;0.018;2023-06-22T16:03:05;32.60;99.90
42187;DHT22;27858;51.414;0.018;2023-06-22T16:05:32;33.40;99.90
42187;DHT22;27858;51.414;0.018;2023-06-22T16:07:59;34.30;99.90
42187;DHT22;27858;51.414;0.018;2023-06-22T16:10:26;35.00;99.90
42187;DHT22;27858;51.414;0.018;2023-06-22T16:12:53;35.10;99.90
42187;DHT22;27858;51.414;0.018;2023-06-22T16:15:20;34.20;99.90
42187;DHT22;27858;51.414;0.018;2023-06-22T16:17:47;33.80;99.90
42187;DHT22;27858;51.414;0.018;2023-06-22T16:20:14;33.40;99.90
42187;DHT22;27858;51.414;0.018;2023-06-22T16:22:43;32.80;99.90
42187;DHT22;27858;51.414;0.018;2023-06-22T16:25:12;32.40;99.90
42187;DHT22;27858;51.414;0.018;2023-06-22T16:27:39;32.20;99.90
42187;DHT22;27858;51.414;0.018;2023-06-22T16:30:07;31.80;99.90
42187;DHT22;27858;51.414;0.018;2023-06-22T16:32:34;31.60;99.90
42187;DHT22;27858;51.414;0.018;2023-06-22T16:35:02;31.50;99.90
42187;DHT22;27858;51.414;0.018;2023-06-22T16:37:28;31.30;99.90
42187;DHT22;27858;51.414;0.018;2023-06-22T16:39:57;31.80;99.90
42187;DHT22;27858;51.414;0.018;2023-06-22T16:42:24;32.40;99.90
42187;DHT22;27858;51.414;0.018;2023-06-22T16:44:50;32.50;99.90
42187;DHT22;27858;51.414;0.018;2023-06-22T16:47:17;32.30;99.90
42187;DHT22;27858;51.414;0.018;2023-06-22T16:49:47;32.00;99.90
42187;DHT22;27858;51.414;0.018;2023-06-22T16:52:14;31.50;99.90
42187;DHT22;27858;51.414;0.018;2023-06-22T16:54:41;31.10;99.90
42187;DHT22;27858;51.414;0.018;2023-06-22T16:57:25;30.80;99.90
42187;DHT22;27858;51.414;0.018;2023-06-22T16:59:55;30.60;99.90
42187;DHT22;27858;51.414;0.018;2023-06-22T17:02:24;30.10;99.90
42187;DHT22;27858;51.414;0.018;2023-06-22T17:04:53;29.70;99.90
42187;DHT22;27858;51.414;0.018;2023-06-22T17:07:21;29.60;99.90
42187;DHT22;27858;51.414;0.018;2023-06-22T17:09:49;29.50;99.90
42187;DHT22;27858;51.414;0.018;2023-06-22T17:12:18;29.40;99.90
42187;DHT22;27858;51.414;0.018;2023-06-22T17:14:45;29.00;99.90
42187;DHT22;27858;51.414;0.018;2023-06-22T17:17:15;28.60;99.90
42187;DHT22;27858;51.414;0.018;2023-06-22T17:19:44;28.30;99.90
42187;DHT22;27858;51.414;0.018;2023-06-22T17:22:11;28.00;99.90
42187;DHT22;27858;51.414;0.018;2023-06-22T17:24:40;27.90;99.90
42187;DHT22;27858;51.414;0.018;2023-06-22T17:27:07;27.70;99.90
42187;DHT22;27858;51.414;0.018;2023-06-22T17:29:33;27.90;99.90
42187;DHT22;27858;51.414;0.018;2023-06-22T17:32:04;28.50;99.90
42187;DHT22;27858;51.414;0.018;2023-06-22T17:34:32;28.90;99.90
42187;DHT22;27858;51.414;0.018;2023-06-22T17:36:59;29.20;99.90
42187;DHT22;27858;51.414;0.018;2023-06-22T17:39:27;28.90;99.90
42187;DHT22;27858;51.414;0.018;2023-06-22T17:41:57;28.70;99.90
42187;DHT22;27858;51.414;0.018;2023-06-22T17:44:26;28.40;99.90
42187;DHT22;27858;51.414;0.018;2023-06-22T17:46:59;28.10;99.90
42187;DHT22;27858;51.414;0.018;2023-06-22T17:49:30;27.90;99.90
42187;DHT22;27858;51.414;0.018;2023-06-22T17:52:00;27.60;99.90
42187;DHT22;27858;51.414;0.018;2023-06-22T17:54:31;27.50;99.90
42187;DHT22;27858;51.414;0.018;2023-06-22T17:57:17;27.30;99.90
42187;DHT22;27858;51.414;0.018;2023-06-22T17:59:51;27.00;99.90
42187;DHT22;27858;51.414;0.018;2023-06-22T18:02:24;26.80;99.90
42187;DHT22;27858;51.414;0.018;2023-06-22T18:05:02;26.60;99.90
42187;DHT22;27858;51.414;0.018;2023-06-22T18:07:31;26.40;99.90
42187;DHT22;27858;51.414;0.018;2023-06-22T18:09:59;26.30;99.90
42187;DHT22;27858;51.414;0.018;2023-06-22T18:12:27;26.30;99.90
42187;DHT22;27858;51.414;0.018;2023-06-22T18:14:54;26.20;99.90
42187;DHT22;27858;51.414;0.018;2023-06-22T18:17:22;26.10;99.90
42187;DHT22;27858;51.414;0.018;2023-06-22T18:19:50;26.00;99.90
42187;DHT22;27858;51.414;0.018;2023-06-22T18:22:18;25.80;99.90
42187;DHT22;27858;51.414;0.018;2023-06-22T18:24:45;25.80;99.90
42187;DHT22;27858;51.414;0.018;2023-06-22T18:27:14;25.70;99.90
42187;DHT22;27858;51.414;0.018;2023-06-22T18:29:41;25.50;99.90
42187;DHT22;27858;51.414;0.018;2023-06-22T18:32:11;25.40;99.90
42187;DHT22;27858;51.414;0.018;2023-06-22T18:34:39;25.30;99.90
42187;DHT22;27858;51.414;0.018;2023-06-22T18:37:10;25.20;99.90
42187;DHT22;27858;51.414;0.018;2023-06-22T18:39:40;25.10;99.90
42187;DHT22;27858;51.414;0.018;2023-06-22T18:42:09;25.00;99.90
42187;DHT22;27858;51.414;0.018;2023-06-22T18:44:41;25.00;99.90
42187;DHT22;27858;51.414;0.018;2023-06-22T18:47:09;24.90;99.90
42187;DHT22;27858;51.414;0.018;2023-06-22T18:52:17;24.60;99.90
42187;DHT22;27858;51.414;0.018;2023-06-22T18:54:50;24.50;99.90
42187;DHT22;27858;51.414;0.018;2023-06-22T19:00:05;24.30;99.90
42187;DHT22;27858;51.414;0.018;2023-06-22T19:02:47;24.30;99.90
42187;DHT22;27858;51.414;0.018;2023-06-22T19:05:43;24.20;99.90
42187;DHT22;27858;51.414;0.018;2023-06-22T19:08:10;24.20;99.90
42187;DHT22;27858;51.414;0.018;2023-06-22T19:10:41;24.10;99.90
42187;DHT22;27858;51.414;0.018;2023-06-22T19:13:29;24.00;99.90
42187;DHT22;27858;51.414;0.018;2023-06-22T19:16:00;24.00;99.90
42187;DHT22;27858;51.414;0.018;2023-06-22T19:18:41;23.90;99.90
42187;DHT22;27858;51.414;0.018;2023-06-22T19:21:13;23.90;99.90
42187;DHT22;27858;51.414;0.018;2023-06-22T19:23:45;23.90;99.90
42187;DHT22;27858;51.414;0.018;2023-06-22T19:26:14;23.80;99.90
42187;DHT22;27858;51.414;0.018;2023-06-22T19:28:46;23.70;99.90
42187;DHT22;27858;51.414;0.018;2023-06-22T19:31:13;23.70;99.90
42187;DHT22;27858;51.414;0.018;2023-06-22T19:33:41;23.50;99.90
42187;DHT22;27858;51.414;0.018;2023-06-22T19:36:07;23.50;99.90
42187;DHT22;27858;51.414;0.018;2023-06-22T19:38:34;23.50;99.90
42187;DHT22;27858;51.414;0.018;2023-06-22T19:41:06;23.40;99.90
42187;DHT22;27858;51.414;0.018;2023-06-22T19:43:34;23.50;99.90
42187;DHT22;27858;51.414;0.018;2023-06-22T19:46:01;23.40;99.90